• Join FlightAware (Why Join?)
  • Login
  • US Flag 
10:37PM EST


 

Airport Tracker/Info


-or-


 

Live Flight TrackerFlight Track Log ✈ N560TA ✈ 22-Jul-2013 ✈ KBTV - KSFM

Flight Track Log - Related Links

Times and Time Zones

All times are in EDT time to prevent confusion due to time zone crossing. See the N560TA flight status page for this flight to view local times or setup timezone preferences in your user account.

Time Position Orientation Groundspeed Altitude Reporting Facility
EDT Latitude Longitude Course Direction KTS MPH feet Rate Location/Type
10:46AM 44.4075 -73.0592 127° Southeast 199 229 6,900  Level Boston Center
10:47AM 44.3747 -72.9833 121° Southeast 216 249 9,000 2,100 Climbing Boston Center
10:48AM 44.3314 -72.8900 123° Southeast 268 308 11,100 1,800 Climbing Boston Center
10:49AM 44.2817 -72.7853 124° Southeast 302 348 12,600 900 Climbing Boston Center
10:50AM 44.2278 -72.6689 123° Southeast 346 398 13,000 180 Climbing Boston Center
10:51AM 44.2380 -72.6446 127° Southeast  Level FlightAware Approximate
10:51AM 44.1758 -72.5558 123° Southeast 352 405 13,000  Level Boston Center
10:52AM 44.1239 -72.4458 123° Southeast 352 405 13,000  Level Boston Center
10:53AM 44.0675 -72.3217 122° Southeast 347 399 13,000  Level Boston Center
10:54AM 44.0153 -72.2092 123° Southeast 353 406 13,000  Level Boston Center
10:55AM 43.9669 -72.0794 117° Southeast 348 400 13,000 -420 Level Boston Center
10:56AM 43.9289 -71.9531 113° Southeast 343 395 12,200 -900 Descending Boston Center
10:57AM 43.8908 -71.8294 113° Southeast 343 395 11,200 -600 Descending Boston Center
10:58AM 43.8631 -71.7086 108° East 338 389 11,000 -120 Descending Boston Center
10:59AM 43.8331 -71.5853 109° East 332 382 11,000  Level Boston Center
11:00AM 43.8050 -71.4533 106° East 326 375 11,000  Level Boston Center
11:01AM 43.7789 -71.3303 106° East 321 369 11,000 -360 Level Boston Center
11:02AM 43.7525 -71.2100 107° East 321 369 10,300 -1,140 Descending Boston Center
11:03AM 43.7017 -71.1278 131° Southeast 297 342 8,800 -1,680 Descending Boston Center
11:04AM 43.6322 -71.0633 146° Southeast 284 327 7,000 -1,680 Descending Boston Center
11:05AM 43.5672 -71.0475 170° South 268 308 5,500 -1,020 Descending Boston Center
11:06AM 43.4986 -71.0492 181° South 245 282 5,000 -300 Descending Boston Center
11:07AM 43.4444 -71.0561 185° South 219 252 4,900 -900 Descending Boston Center
11:08AM 43.3756 -71.0547 179° South 220 253 3,300 -1,080 Descending Boston Center
11:09AM 43.3333 -71.0333 160° South 231 266 3,000 -180 Descending KA90
11:10AM 43.3000 -70.9667 124° Southeast 209 241 3,000  Level KA90
11:11AM 43.3000 -70.9000 90° East 205 236 3,000 -420 Level KA90
11:12AM 43.3333 -70.8333 55° Northeast 183 211 2,200 -840 Descending KA90
11:13AM 43.3500 -70.7833 65° Northeast 139 160 1,400 -720 Descending KA90
11:14AM 43.3833 -70.7500 36° Northeast 124 143 700 -420 Descending KA90
11:15AM 43.3833 -70.7333 90° East 124 143 700  Level KA90